createdAt,value
2023-01-11T00:00:52.516Z,1009.58
2023-01-11T00:01:52.572Z,1009.57
2023-01-11T00:02:52.534Z,1009.60
2023-01-11T00:03:52.544Z,1009.63
2023-01-11T00:04:52.593Z,1009.61
2023-01-11T00:05:52.563Z,1009.64
2023-01-11T00:06:52.616Z,1009.62
2023-01-11T00:07:52.585Z,1009.65
2023-01-11T00:08:52.596Z,1009.63
2023-01-11T00:09:52.603Z,1009.63
2023-01-11T00:10:52.612Z,1009.56
2023-01-11T00:11:52.623Z,1009.59
2023-01-11T00:12:52.636Z,1009.53
2023-01-11T00:13:52.643Z,1009.57
2023-01-11T00:14:52.653Z,1009.55
2023-01-11T00:15:52.684Z,1009.53
2023-01-11T00:16:52.671Z,1009.55
2023-01-11T00:17:52.681Z,1009.53
2023-01-11T00:18:52.696Z,1009.48
2023-01-11T00:19:52.702Z,1009.49
2023-01-11T00:20:52.710Z,1009.48
2023-01-11T00:21:52.721Z,1009.47
2023-01-11T00:22:52.727Z,1009.48
2023-01-11T00:23:52.740Z,1009.42
2023-01-11T00:24:52.750Z,1009.36
2023-01-11T00:25:52.763Z,1009.37
2023-01-11T00:26:52.770Z,1009.31
2023-01-11T00:27:52.782Z,1009.32
2023-01-11T00:28:52.787Z,1009.26
2023-01-11T00:29:52.799Z,1009.26
2023-01-11T00:30:52.840Z,1009.24
2023-01-11T00:31:52.821Z,1009.28
2023-01-11T00:32:52.828Z,1009.25
2023-01-11T00:33:52.871Z,1009.26
2023-01-11T00:34:52.848Z,1009.29
2023-01-11T00:35:52.860Z,1009.22
2023-01-11T00:36:52.873Z,1009.24
2023-01-11T00:37:52.884Z,1009.18
2023-01-11T00:38:52.890Z,1009.19
2023-01-11T00:39:52.900Z,1009.22
2023-01-11T00:40:52.916Z,1009.19
2023-01-11T00:41:52.935Z,1009.13
2023-01-11T00:42:52.938Z,1009.09
2023-01-11T00:43:52.939Z,1009.09
2023-01-11T00:44:52.954Z,1009.08
2023-01-11T00:45:53.048Z,1009.08
2023-01-11T00:46:52.971Z,1009.08
2023-01-11T00:47:53.000Z,1009.03
2023-01-11T00:48:53.008Z,1009.03
2023-01-11T00:49:52.997Z,1009.00
2023-01-11T00:50:53.007Z,1009.02
2023-01-11T00:51:53.023Z,1008.91
2023-01-11T00:52:53.029Z,1008.85
2023-01-11T00:53:53.036Z,1008.91
2023-01-11T00:54:53.047Z,1008.92
2023-01-11T00:55:53.059Z,1008.86
2023-01-11T00:56:53.067Z,1008.88
2023-01-11T00:57:53.078Z,1008.84
2023-01-11T00:58:53.093Z,1008.90
2023-01-11T00:59:53.096Z,1008.88
2023-01-11T01:00:53.105Z,1008.92
2023-01-11T01:01:53.119Z,1008.86
2023-01-11T01:02:53.160Z,1008.90
2023-01-11T01:03:53.137Z,1008.91
2023-01-11T01:04:53.147Z,1008.86
2023-01-11T01:05:53.156Z,1008.84
2023-01-11T01:06:53.216Z,1008.79
2023-01-11T01:07:53.198Z,1008.83
2023-01-11T01:08:53.183Z,1008.73
2023-01-11T01:09:53.200Z,1008.73
2023-01-11T01:10:53.205Z,1008.73
2023-01-11T01:11:53.218Z,1008.69
2023-01-11T01:12:53.225Z,1008.72
2023-01-11T01:13:53.233Z,1008.61
2023-01-11T01:14:53.245Z,1008.67
2023-01-11T01:15:53.294Z,1008.71
2023-01-11T01:16:53.267Z,1008.66
2023-01-11T01:17:53.272Z,1008.73
2023-01-11T01:18:53.282Z,1008.71
2023-01-11T01:19:53.294Z,1008.67
2023-01-11T01:20:53.303Z,1008.69
2023-01-11T01:21:53.312Z,1008.72
2023-01-11T01:22:53.327Z,1008.74
2023-01-11T01:23:53.336Z,1008.73
2023-01-11T01:24:53.341Z,1008.72
2023-01-11T01:25:53.351Z,1008.76
2023-01-11T01:26:53.364Z,1008.78
2023-01-11T01:27:53.371Z,1008.74
2023-01-11T01:28:53.384Z,1008.76
2023-01-11T01:29:53.392Z,1008.69
2023-01-11T01:30:53.439Z,1008.74
2023-01-11T01:31:53.409Z,1008.72
2023-01-11T01:32:53.429Z,1008.72
2023-01-11T01:33:53.428Z,1008.67
2023-01-11T01:34:53.437Z,1008.70
2023-01-11T01:35:53.447Z,1008.63
2023-01-11T01:36:53.460Z,1008.66
2023-01-11T01:37:53.467Z,1008.60
2023-01-11T01:38:53.480Z,1008.65
2023-01-11T01:39:53.487Z,1008.61
2023-01-11T01:40:53.495Z,1008.62
2023-01-11T01:41:53.521Z,1008.57
2023-01-11T01:42:53.517Z,1008.56
2023-01-11T01:43:53.526Z,1008.59
2023-01-11T01:44:53.532Z,1008.53
2023-01-11T01:45:53.543Z,1008.55
2023-01-11T01:46:53.553Z,1008.57
2023-01-11T01:47:53.562Z,1008.49
2023-01-11T01:48:53.572Z,1008.44
2023-01-11T01:49:53.585Z,1008.46
2023-01-11T01:50:53.595Z,1008.38
2023-01-11T01:51:53.617Z,1008.34
2023-01-11T01:52:53.611Z,1008.40
2023-01-11T01:53:53.621Z,1008.38
2023-01-11T01:54:53.639Z,1008.38
2023-01-11T01:55:53.651Z,1008.31
2023-01-11T01:56:53.650Z,1008.35
2023-01-11T01:57:53.664Z,1008.35
2023-01-11T01:58:53.674Z,1008.27
2023-01-11T01:59:53.683Z,1008.28
2023-01-11T02:00:53.689Z,1008.24
2023-01-11T02:01:53.755Z,1008.22
2023-01-11T02:02:53.774Z,1008.23
2023-01-11T02:03:53.723Z,1008.18
2023-01-11T02:04:53.732Z,1008.15
2023-01-11T02:05:53.757Z,1008.13
2023-01-11T02:06:53.825Z,1008.15
2023-01-11T02:07:53.758Z,1008.11
2023-01-11T02:08:53.767Z,1008.05
2023-01-11T02:09:53.829Z,1008.06
2023-01-11T02:10:53.796Z,1008.07
2023-01-11T02:11:53.803Z,1008.07
2023-01-11T02:12:53.810Z,1007.99
2023-01-11T02:13:53.817Z,1007.98
2023-01-11T02:14:53.827Z,1007.99
2023-01-11T02:15:53.876Z,1007.98
2023-01-11T02:16:53.849Z,1007.92
2023-01-11T02:17:53.861Z,1007.94
2023-01-11T02:18:53.868Z,1007.91
2023-01-11T02:19:53.896Z,1007.91
2023-01-11T02:20:53.886Z,1007.90
2023-01-11T02:21:53.898Z,1007.87
2023-01-11T02:22:53.907Z,1007.86
2023-01-11T02:23:53.916Z,1007.80
2023-01-11T02:24:53.927Z,1007.84
2023-01-11T02:25:53.937Z,1007.69
2023-01-11T02:26:53.947Z,1007.75
2023-01-11T02:27:53.958Z,1007.80
2023-01-11T02:28:53.967Z,1007.73
2023-01-11T02:29:53.980Z,1007.77
2023-01-11T02:30:54.023Z,1007.69
2023-01-11T02:31:54.009Z,1007.58
2023-01-11T02:32:54.026Z,1007.61
2023-01-11T02:33:54.021Z,1007.58
2023-01-11T02:34:54.029Z,1007.59
2023-01-11T02:35:54.037Z,1007.61
2023-01-11T02:36:54.052Z,1007.56
2023-01-11T02:37:54.057Z,1007.56
2023-01-11T02:38:54.068Z,1007.56
2023-01-11T02:39:54.079Z,1007.58
2023-01-11T02:40:54.088Z,1007.57
2023-01-11T02:41:54.098Z,1007.57
2023-01-11T02:42:54.111Z,1007.53
2023-01-11T02:43:54.117Z,1007.55
2023-01-11T02:44:54.128Z,1007.51
2023-01-11T02:45:54.155Z,1007.50
2023-01-11T02:46:54.157Z,1007.46
2023-01-11T02:47:54.177Z,1007.45
2023-01-11T02:48:54.187Z,1007.48
2023-01-11T02:49:54.178Z,1007.47
2023-01-11T02:50:54.196Z,1007.49
2023-01-11T02:51:54.202Z,1007.44
2023-01-11T02:52:54.215Z,1007.49
2023-01-11T02:53:54.219Z,1007.46
2023-01-11T02:54:54.239Z,1007.47
2023-01-11T02:55:54.249Z,1007.45
2023-01-11T02:56:54.249Z,1007.47
2023-01-11T02:57:54.266Z,1007.43
2023-01-11T02:58:54.277Z,1007.40
2023-01-11T02:59:54.282Z,1007.34
2023-01-11T03:00:54.295Z,1007.35
2023-01-11T03:01:54.341Z,1007.30
2023-01-11T03:02:54.361Z,1007.28
2023-01-11T03:03:54.321Z,1007.28
2023-01-11T03:04:54.332Z,1007.28
2023-01-11T03:05:54.349Z,1007.28
2023-01-11T03:06:54.375Z,1007.25
2023-01-11T03:07:54.362Z,1007.22
2023-01-11T03:08:54.385Z,1007.15
2023-01-11T03:09:54.434Z,1007.18
2023-01-11T03:10:54.393Z,1007.21
2023-01-11T03:11:54.404Z,1007.15
2023-01-11T03:12:54.413Z,1007.13
2023-01-11T03:13:54.423Z,1007.12
2023-01-11T03:14:54.434Z,1007.11
2023-01-11T03:15:54.489Z,1007.01
2023-01-11T03:16:54.457Z,1007.06
2023-01-11T03:17:54.464Z,1007.02
2023-01-11T03:18:54.474Z,1007.04
2023-01-11T03:19:54.486Z,1007.02
2023-01-11T03:20:54.495Z,1006.98
2023-01-11T03:21:54.517Z,1006.99
2023-01-11T03:22:54.516Z,1007.00
2023-01-11T03:23:54.527Z,1007.00
2023-01-11T03:24:54.536Z,1006.93
2023-01-11T03:25:54.548Z,1006.89
2023-01-11T03:26:54.554Z,1006.93
2023-01-11T03:27:54.588Z,1006.91
2023-01-11T03:28:54.584Z,1006.93
2023-01-11T03:29:54.609Z,1006.89
2023-01-11T03:30:54.604Z,1006.94
2023-01-11T03:31:54.609Z,1006.89
2023-01-11T03:32:54.622Z,1006.91
2023-01-11T03:33:54.629Z,1006.95
2023-01-11T03:34:54.646Z,1007.00
2023-01-11T03:35:54.660Z,1006.98
2023-01-11T03:36:54.665Z,1006.91
2023-01-11T03:37:54.668Z,1006.88
2023-01-11T03:38:54.681Z,1006.87
2023-01-11T03:39:54.693Z,1006.84
2023-01-11T03:40:54.702Z,1006.84
2023-01-11T03:41:54.713Z,1006.77
2023-01-11T03:42:54.724Z,1006.74
2023-01-11T03:43:54.734Z,1006.80
2023-01-11T03:44:54.744Z,1006.76
2023-01-11T03:45:54.754Z,1006.72
2023-01-11T03:46:54.848Z,1006.75
2023-01-11T03:47:54.774Z,1006.76
2023-01-11T03:48:54.805Z,1006.74
2023-01-11T03:49:54.813Z,1006.66
2023-01-11T03:50:54.808Z,1006.71
2023-01-11T03:51:54.818Z,1006.74
2023-01-11T03:52:54.839Z,1006.75
2023-01-11T03:53:54.836Z,1006.74
2023-01-11T03:54:54.853Z,1006.69
2023-01-11T03:55:54.877Z,1006.65
2023-01-11T03:56:54.877Z,1006.68
2023-01-11T03:57:54.883Z,1006.63
2023-01-11T03:58:54.906Z,1006.62
2023-01-11T03:59:54.903Z,1006.63
2023-01-11T04:00:54.932Z,1006.58
2023-01-11T04:01:54.935Z,1006.64
2023-01-11T04:02:54.930Z,1006.72
2023-01-11T04:03:54.999Z,1006.60
2023-01-11T04:04:54.952Z,1006.68
2023-01-11T04:05:54.968Z,1006.62
2023-01-11T04:06:55.013Z,1006.63
2023-01-11T04:07:54.982Z,1006.59
2023-01-11T04:08:54.991Z,1006.64
2023-01-11T04:09:55.006Z,1006.60
2023-01-11T04:10:55.025Z,1006.61
2023-01-11T04:11:55.033Z,1006.64
2023-01-11T04:12:55.052Z,1006.60
2023-01-11T04:13:55.048Z,1006.60
2023-01-11T04:14:55.061Z,1006.59
2023-01-11T04:15:55.063Z,1006.56
2023-01-11T04:16:55.088Z,1006.50
2023-01-11T04:17:55.099Z,1006.49
2023-01-11T04:18:55.101Z,1006.60
2023-01-11T04:19:55.110Z,1006.56
2023-01-11T04:20:55.127Z,1006.53
2023-01-11T04:21:55.131Z,1006.42
2023-01-11T04:22:55.151Z,1006.46
2023-01-11T04:23:55.158Z,1006.41
2023-01-11T04:24:55.163Z,1006.43
2023-01-11T04:25:55.171Z,1006.47
2023-01-11T04:26:55.182Z,1006.45
2023-01-11T04:27:55.195Z,1006.44
2023-01-11T04:28:55.202Z,1006.42
2023-01-11T04:29:55.212Z,1006.44
2023-01-11T04:30:55.227Z,1006.41
2023-01-11T04:31:55.250Z,1006.33
2023-01-11T04:32:55.246Z,1006.35
2023-01-11T04:33:55.256Z,1006.38
2023-01-11T04:34:55.281Z,1006.31
2023-01-11T04:35:55.280Z,1006.29
2023-01-11T04:36:55.286Z,1006.24
2023-01-11T04:37:55.298Z,1006.20
2023-01-11T04:38:55.309Z,1006.20
2023-01-11T04:39:55.326Z,1006.16
2023-01-11T04:40:55.329Z,1006.21
2023-01-11T04:41:55.341Z,1006.23
2023-01-11T04:42:55.357Z,1006.17
2023-01-11T04:43:55.367Z,1006.14
2023-01-11T04:44:55.373Z,1006.11
2023-01-11T04:45:55.449Z,1006.09
2023-01-11T04:46:55.401Z,1006.10
2023-01-11T04:47:55.412Z,1006.04
2023-01-11T04:48:55.423Z,1005.97
2023-01-11T04:49:55.430Z,1006.03
2023-01-11T04:50:55.437Z,1006.03
2023-01-11T04:51:55.450Z,1006.02
2023-01-11T04:52:55.462Z,1006.04
2023-01-11T04:53:55.474Z,1006.06
2023-01-11T04:54:55.493Z,1006.07
2023-01-11T04:55:55.492Z,1006.12
2023-01-11T04:56:55.512Z,1006.07
2023-01-11T04:57:55.512Z,1006.04
2023-01-11T04:58:55.525Z,1006.02
2023-01-11T04:59:55.534Z,1006.03
2023-01-11T05:00:55.561Z,1006.03
2023-01-11T05:01:55.567Z,1006.02
2023-01-11T05:02:55.590Z,1005.95
2023-01-11T05:03:55.613Z,1005.92
2023-01-11T05:04:55.592Z,1005.91
2023-01-11T05:05:55.598Z,1005.91
2023-01-11T05:06:55.645Z,1005.90
2023-01-11T05:07:55.625Z,1005.92
2023-01-11T05:08:55.631Z,1005.86
2023-01-11T05:09:55.645Z,1005.91
2023-01-11T05:10:55.667Z,1005.80
2023-01-11T05:11:55.665Z,1005.80
2023-01-11T05:12:55.681Z,1005.88
2023-01-11T05:13:55.688Z,1005.88
2023-01-11T05:14:55.696Z,1005.85
2023-01-11T05:15:55.707Z,1005.87
2023-01-11T05:16:55.717Z,1005.87
2023-01-11T05:17:55.728Z,1005.86
2023-01-11T05:18:55.749Z,1005.88
2023-01-11T05:19:55.756Z,1005.85
2023-01-11T05:20:55.760Z,1005.80
2023-01-11T05:21:55.772Z,1005.75
2023-01-11T05:22:55.794Z,1005.73
2023-01-11T05:23:55.800Z,1005.74
2023-01-11T05:24:55.806Z,1005.70
2023-01-11T05:25:55.816Z,1005.68
2023-01-11T05:26:55.831Z,1005.61
2023-01-11T05:27:55.837Z,1005.62
2023-01-11T05:28:55.852Z,1005.65
2023-01-11T05:29:55.858Z,1005.74
2023-01-11T05:30:55.872Z,1005.73
2023-01-11T05:31:55.947Z,1005.75
2023-01-11T05:32:55.892Z,1005.77
2023-01-11T05:33:55.902Z,1005.74
2023-01-11T05:34:55.934Z,1005.74
2023-01-11T05:35:55.929Z,1005.73
2023-01-11T05:36:55.933Z,1005.71
2023-01-11T05:37:55.944Z,1005.66
2023-01-11T05:38:55.960Z,1005.65
2023-01-11T05:39:55.970Z,1005.65
2023-01-11T05:40:55.977Z,1005.67
2023-01-11T05:41:56.003Z,1005.59
2023-01-11T05:42:56.005Z,1005.59
2023-01-11T05:43:56.018Z,1005.61
2023-01-11T05:44:58.037Z,1005.59
2023-01-11T05:45:56.095Z,1005.60
2023-01-11T05:46:56.046Z,1005.60
2023-01-11T05:47:56.059Z,1005.56
2023-01-11T05:48:56.063Z,1005.54
2023-01-11T05:49:56.078Z,1005.53
2023-01-11T05:50:56.087Z,1005.47
2023-01-11T05:51:56.099Z,1005.55
2023-01-11T05:52:56.111Z,1005.54
2023-01-11T05:53:56.128Z,1005.52
2023-01-11T05:54:56.131Z,1005.45
2023-01-11T05:55:56.143Z,1005.45
2023-01-11T05:56:56.159Z,1005.53
2023-01-11T05:57:56.163Z,1005.53
2023-01-11T05:58:56.174Z,1005.50
2023-01-11T05:59:56.195Z,1005.46
2023-01-11T06:00:56.196Z,1005.45
2023-01-11T06:01:56.227Z,1005.42
2023-01-11T06:02:56.348Z,1005.41
2023-01-11T06:03:56.232Z,1005.39
2023-01-11T06:04:56.240Z,1005.43
2023-01-11T06:05:56.259Z,1005.43
2023-01-11T06:06:56.328Z,1005.38
2023-01-11T06:07:56.274Z,1005.42
2023-01-11T06:08:56.286Z,1005.38
2023-01-11T06:09:56.315Z,1005.38
2023-01-11T06:10:56.314Z,1005.39
2023-01-11T06:11:56.320Z,1005.41
2023-01-11T06:12:56.330Z,1005.39
2023-01-11T06:13:56.344Z,1005.35
2023-01-11T06:14:56.348Z,1005.29
2023-01-11T06:15:56.363Z,1005.29
2023-01-11T06:16:56.411Z,1005.29
2023-01-11T06:17:56.386Z,1005.25
2023-01-11T06:18:56.406Z,1005.25
2023-01-11T06:19:56.404Z,1005.24
2023-01-11T06:20:56.418Z,1005.26
2023-01-11T06:21:56.431Z,1005.27
2023-01-11T06:22:56.437Z,1005.23
2023-01-11T06:23:56.447Z,1005.28
2023-01-11T06:24:56.458Z,1005.25
2023-01-11T06:25:56.469Z,1005.25
2023-01-11T06:26:56.488Z,1005.26
2023-01-11T06:27:56.493Z,1005.25
2023-01-11T06:28:56.505Z,1005.26
2023-01-11T06:29:56.511Z,1005.21
2023-01-11T06:30:56.571Z,1005.21
2023-01-11T06:31:56.536Z,1005.19
2023-01-11T06:32:56.549Z,1005.21
2023-01-11T06:33:56.564Z,1005.18
2023-01-11T06:34:56.571Z,1005.14
2023-01-11T06:35:56.582Z,1005.11
2023-01-11T06:36:56.593Z,1005.10
2023-01-11T06:37:56.602Z,1005.16
2023-01-11T06:38:56.613Z,1005.18
2023-01-11T06:39:56.628Z,1005.15
2023-01-11T06:40:56.647Z,1005.14
2023-01-11T06:41:56.647Z,1005.09
2023-01-11T06:42:56.658Z,1005.16
2023-01-11T06:43:56.679Z,1005.14
2023-01-11T06:44:56.691Z,1005.14
2023-01-11T06:45:56.726Z,1005.21
2023-01-11T06:46:56.701Z,1005.20
2023-01-11T06:47:56.713Z,1005.17
2023-01-11T06:48:56.725Z,1005.19
2023-01-11T06:49:56.740Z,1005.16
2023-01-11T06:50:56.771Z,1005.13
2023-01-11T06:51:56.765Z,1005.18
2023-01-11T06:52:56.777Z,1005.16
2023-01-11T06:53:56.779Z,1005.20
2023-01-11T06:54:56.790Z,1005.21
2023-01-11T06:55:56.810Z,1005.23
2023-01-11T06:56:56.813Z,1005.23
2023-01-11T06:57:56.824Z,1005.22
2023-01-11T06:58:56.864Z,1005.23
2023-01-11T06:59:56.847Z,1005.24
2023-01-11T07:00:56.907Z,1005.25
2023-01-11T07:01:56.867Z,1005.28
2023-01-11T07:02:56.887Z,1005.31
2023-01-11T07:03:56.890Z,1005.30
2023-01-11T07:04:56.949Z,1005.26
2023-01-11T07:05:57.108Z,1005.38
2023-01-11T07:06:56.930Z,1005.39
2023-01-11T07:07:56.933Z,1005.44
2023-01-11T07:08:56.946Z,1005.42
2023-01-11T07:09:56.959Z,1005.43
2023-01-11T07:10:56.977Z,1005.38
2023-01-11T07:11:56.976Z,1005.40
2023-01-11T07:12:56.987Z,1005.43
2023-01-11T07:13:56.998Z,1005.46
2023-01-11T07:14:57.009Z,1005.40
2023-01-11T07:15:57.032Z,1005.47
2023-01-11T07:16:57.033Z,1005.43
2023-01-11T07:17:57.042Z,1005.46
2023-01-11T07:18:57.054Z,1005.48
2023-01-11T07:19:57.066Z,1005.45
2023-01-11T07:20:57.075Z,1005.47
2023-01-11T07:21:57.090Z,1005.45
2023-01-11T07:22:57.099Z,1005.49
2023-01-11T07:23:57.107Z,1005.48
2023-01-11T07:24:57.117Z,1005.46
2023-01-11T07:25:57.182Z,1005.48
2023-01-11T07:26:57.139Z,1005.45
2023-01-11T07:27:57.177Z,1005.42
2023-01-11T07:28:57.163Z,1005.48
2023-01-11T07:29:57.171Z,1005.45
2023-01-11T07:30:59.379Z,1005.47
2023-01-11T07:31:57.203Z,1005.50
2023-01-11T07:32:57.206Z,1005.51
2023-01-11T07:33:57.227Z,1005.53
2023-01-11T07:34:57.226Z,1005.52
2023-01-11T07:35:57.239Z,1005.53
2023-01-11T07:36:57.255Z,1005.55
2023-01-11T07:37:57.260Z,1005.51
2023-01-11T07:38:57.272Z,1005.50
2023-01-11T07:39:57.281Z,1005.51
2023-01-11T07:40:57.291Z,1005.52
2023-01-11T07:41:57.302Z,1005.53
2023-01-11T07:42:57.314Z,1005.51
2023-01-11T07:43:57.331Z,1005.55
2023-01-11T07:44:57.344Z,1005.50
2023-01-11T07:45:57.421Z,1005.48
2023-01-11T07:46:57.436Z,1005.47
2023-01-11T07:47:57.379Z,1005.43
2023-01-11T07:48:57.399Z,1005.39
2023-01-11T07:49:57.394Z,1005.42
2023-01-11T07:50:57.408Z,1005.41
2023-01-11T07:51:57.420Z,1005.41
2023-01-11T07:52:57.425Z,1005.43
2023-01-11T07:53:57.441Z,1005.40
2023-01-11T07:54:57.449Z,1005.34
2023-01-11T07:55:57.466Z,1005.37
2023-01-11T07:56:57.476Z,1005.43
2023-01-11T07:57:57.501Z,1005.40
2023-01-11T07:58:57.499Z,1005.40
2023-01-11T07:59:57.504Z,1005.41
2023-01-11T08:00:57.520Z,1005.35
2023-01-11T08:01:57.535Z,1005.41
2023-01-11T08:02:57.656Z,1005.34
2023-01-11T08:03:57.547Z,1005.40
2023-01-11T08:04:57.574Z,1005.34
2023-01-11T08:05:57.574Z,1005.36
2023-01-11T08:06:57.583Z,1005.36
2023-01-11T08:07:57.593Z,1005.37
2023-01-11T08:08:57.608Z,1005.35
2023-01-11T08:09:57.617Z,1005.36
2023-01-11T08:10:57.629Z,1005.34
2023-01-11T08:11:57.640Z,1005.32
2023-01-11T08:12:57.650Z,1005.33
2023-01-11T08:13:57.672Z,1005.31
2023-01-11T08:14:57.687Z,1005.34
2023-01-11T08:15:57.719Z,1005.32
2023-01-11T08:16:57.700Z,1005.34
2023-01-11T08:17:57.707Z,1005.27
2023-01-11T08:18:57.720Z,1005.27
2023-01-11T08:19:57.730Z,1005.22
2023-01-11T08:20:57.744Z,1005.27
2023-01-11T08:21:57.754Z,1005.27
2023-01-11T08:22:57.767Z,1005.32
2023-01-11T08:23:57.785Z,1005.28
2023-01-11T08:24:57.791Z,1005.34
2023-01-11T08:25:57.824Z,1005.29
2023-01-11T08:26:57.850Z,1005.32
2023-01-11T08:27:57.831Z,1005.27
2023-01-11T08:28:57.835Z,1005.27
2023-01-11T08:29:57.849Z,1005.24
2023-01-11T08:30:57.876Z,1005.23
2023-01-11T08:31:57.877Z,1005.21
2023-01-11T08:32:57.878Z,1005.17
2023-01-11T08:33:57.928Z,1005.22
2023-01-11T08:34:57.905Z,1005.22
2023-01-11T08:35:57.917Z,1005.20
2023-01-11T08:36:57.931Z,1005.21
2023-01-11T08:37:57.944Z,1005.17
2023-01-11T08:38:57.964Z,1005.25
2023-01-11T08:39:57.967Z,1005.14
2023-01-11T08:40:57.978Z,1005.16
2023-01-11T08:41:57.990Z,1005.17
2023-01-11T08:42:58.050Z,1005.19
2023-01-11T08:43:58.012Z,1005.20
2023-01-11T08:44:58.023Z,1005.23
2023-01-11T08:45:58.040Z,1005.18
2023-01-11T08:46:58.049Z,1005.23
2023-01-11T08:47:58.061Z,1005.27
2023-01-11T08:48:58.076Z,1005.27
2023-01-11T08:49:58.087Z,1005.26
2023-01-11T08:50:58.105Z,1005.30
2023-01-11T08:51:58.116Z,1005.31
2023-01-11T08:52:58.128Z,1005.31
2023-01-11T08:53:58.137Z,1005.21
2023-01-11T08:54:58.145Z,1005.28
2023-01-11T08:55:58.165Z,1005.22
2023-01-11T08:56:58.174Z,1005.25
2023-01-11T08:57:58.179Z,1005.28
2023-01-11T08:58:58.192Z,1005.24
2023-01-11T08:59:58.206Z,1005.26
2023-01-11T09:00:58.219Z,1005.24
2023-01-11T09:01:58.247Z,1005.22
2023-01-11T09:02:58.273Z,1005.17
2023-01-11T09:03:58.255Z,1005.18
2023-01-11T09:04:58.267Z,1005.21
2023-01-11T09:05:58.282Z,1005.18
2023-01-11T09:06:58.289Z,1005.26
2023-01-11T09:07:58.302Z,1005.18
2023-01-11T09:08:58.319Z,1005.18
2023-01-11T09:09:58.328Z,1005.17
2023-01-11T09:10:58.338Z,1005.19
2023-01-11T09:11:58.350Z,1005.14
2023-01-11T09:12:58.364Z,1005.10
2023-01-11T09:13:58.376Z,1005.10
2023-01-11T09:14:58.391Z,1005.08
2023-01-11T09:15:58.441Z,1005.08
2023-01-11T09:16:58.413Z,1005.12
2023-01-11T09:17:58.432Z,1005.02
2023-01-11T09:18:58.440Z,1005.12
2023-01-11T09:19:58.453Z,1005.06
2023-01-11T09:20:58.461Z,1005.15
2023-01-11T09:21:58.481Z,1005.08
2023-01-11T09:22:58.486Z,1005.06
2023-01-11T09:23:58.503Z,1005.08
2023-01-11T09:24:58.512Z,1005.02
2023-01-11T09:25:58.522Z,1005.06
2023-01-11T09:26:58.577Z,1005.11
2023-01-11T09:27:58.555Z,1005.11
2023-01-11T09:28:58.585Z,1005.11
2023-01-11T09:29:58.591Z,1005.07
2023-01-11T09:30:58.602Z,1005.05
2023-01-11T09:31:58.599Z,1005.07
2023-01-11T09:32:58.616Z,1005.10
2023-01-11T09:33:58.628Z,1005.05
2023-01-11T09:34:58.647Z,1005.06
2023-01-11T09:35:58.662Z,1005.05
2023-01-11T09:36:58.672Z,1005.08
2023-01-11T09:37:58.682Z,1005.04
2023-01-11T09:38:58.681Z,1005.00
2023-01-11T09:39:58.693Z,1005.00
2023-01-11T09:40:58.717Z,1005.01
2023-01-11T09:41:58.718Z,1004.91
2023-01-11T09:42:58.730Z,1004.94
2023-01-11T09:43:58.742Z,1005.04
2023-01-11T09:44:58.754Z,1004.97
2023-01-11T09:45:58.822Z,1004.92
2023-01-11T09:46:58.836Z,1004.90
2023-01-11T09:47:58.794Z,1004.88
2023-01-11T09:48:58.803Z,1004.88
2023-01-11T09:49:58.812Z,1004.92
2023-01-11T09:50:58.918Z,1004.85
2023-01-11T09:51:59.846Z,1004.84
2023-01-11T09:52:58.849Z,1004.87
2023-01-11T09:53:58.862Z,1004.88
2023-01-11T09:54:58.878Z,1004.87
2023-01-11T09:55:58.884Z,1004.90
2023-01-11T09:56:58.893Z,1004.88
2023-01-11T09:57:58.905Z,1004.91
2023-01-11T09:58:58.917Z,1004.89
2023-01-11T09:59:58.933Z,1004.91
2023-01-11T10:01:01.108Z,1004.90
2023-01-11T10:01:58.954Z,1004.88
2023-01-11T10:02:58.963Z,1004.85
2023-01-11T10:03:58.976Z,1004.83
2023-01-11T10:04:59.037Z,1004.80
2023-01-11T10:05:58.998Z,1004.81
2023-01-11T10:06:59.008Z,1004.75
2023-01-11T10:18:27.727Z,1004.64
2023-01-11T10:18:27.727Z,1004.65
2023-01-11T10:18:37.596Z,1004.66
2023-01-11T10:18:37.597Z,1004.59
2023-01-11T10:19:25.616Z,1004.59
2023-01-11T10:19:59.204Z,1004.58
2023-01-11T10:20:59.176Z,1004.62
2023-01-11T10:21:59.196Z,1004.57
2023-01-11T10:22:59.197Z,1004.61
2023-01-11T10:23:59.213Z,1004.59
2023-01-11T10:24:59.223Z,1004.58
2023-01-11T10:25:59.237Z,1004.55
2023-01-11T10:26:59.289Z,1004.55
2023-01-11T10:27:59.256Z,1004.57
2023-01-11T10:28:59.271Z,1004.54
2023-01-11T10:29:59.280Z,1004.51
2023-01-11T10:30:59.293Z,1004.53
2023-01-11T10:31:59.303Z,1004.47
2023-01-11T10:32:59.315Z,1004.48
2023-01-11T10:33:59.328Z,1004.47
2023-01-11T10:34:59.344Z,1004.45
2023-01-11T10:35:59.356Z,1004.51
2023-01-11T10:36:59.359Z,1004.52
2023-01-11T10:37:59.376Z,1004.52
2023-01-11T10:38:59.393Z,1004.51
2023-01-11T10:39:59.399Z,1004.43
2023-01-11T10:40:59.410Z,1004.52
2023-01-11T10:41:59.430Z,1004.44
2023-01-11T10:42:59.435Z,1004.44
2023-01-11T10:43:59.450Z,1004.43
2023-01-11T10:44:59.470Z,1004.42
2023-01-11T10:45:59.574Z,1004.38
2023-01-11T10:46:59.487Z,1004.43
2023-01-11T10:47:59.518Z,1004.41
2023-01-11T10:48:59.510Z,1004.38
2023-01-11T10:49:59.519Z,1004.34
2023-01-11T10:50:59.534Z,1004.37
2023-01-11T10:51:59.548Z,1004.36
2023-01-11T10:52:59.563Z,1004.33
2023-01-11T10:53:59.566Z,1004.34
2023-01-11T10:54:59.583Z,1004.36
2023-01-11T10:55:59.592Z,1004.34
2023-01-11T10:57:01.798Z,1004.30
2023-01-11T10:58:02.373Z,1004.31
2023-01-11T10:58:59.628Z,1004.27
2023-01-11T10:59:59.643Z,1004.25
2023-01-11T11:00:59.662Z,1004.30
2023-01-11T11:01:59.704Z,1004.28
2023-01-11T11:02:59.684Z,1004.26
2023-01-11T11:03:59.692Z,1004.28
2023-01-11T11:04:59.708Z,1004.22
2023-01-11T11:05:59.713Z,1004.27
2023-01-11T11:06:59.726Z,1004.25
2023-01-11T11:07:59.740Z,1004.25
2023-01-11T11:08:59.749Z,1004.22
2023-01-11T11:09:59.763Z,1004.23
2023-01-11T11:10:59.775Z,1004.19
2023-01-11T11:11:59.804Z,1004.22
2023-01-11T11:12:59.809Z,1004.18
2023-01-11T11:13:59.812Z,1004.13
2023-01-11T11:14:59.831Z,1004.16
2023-01-11T11:15:59.867Z,1004.11
2023-01-11T11:16:59.849Z,1004.14
2023-01-11T11:17:59.860Z,1004.12
2023-01-11T11:18:59.876Z,1004.09
2023-01-11T11:19:59.886Z,1004.06
2023-01-11T11:20:59.897Z,1004.08
2023-01-11T11:21:59.916Z,1004.07
2023-01-11T11:22:59.924Z,1004.02
2023-01-11T11:23:59.936Z,1004.02
2023-01-11T11:24:59.947Z,1004.06
2023-01-11T11:25:59.967Z,1003.99
2023-01-11T11:27:00.002Z,1003.98
2023-01-11T11:27:59.983Z,1003.95
2023-01-11T11:28:59.998Z,1003.99
2023-01-11T11:30:00.014Z,1004.02
2023-01-11T11:31:00.038Z,1004.02
2023-01-11T11:32:00.140Z,1003.99
2023-01-11T11:33:00.050Z,1004.00
2023-01-11T11:34:00.057Z,1004.01
2023-01-11T11:35:00.067Z,1004.01
2023-01-11T11:36:00.103Z,1004.00
2023-01-11T11:37:00.099Z,1004.00
2023-01-11T11:38:00.131Z,1003.99
2023-01-11T11:39:00.133Z,1003.91
2023-01-11T11:40:00.138Z,1003.95
2023-01-11T11:41:00.143Z,1003.92
2023-01-11T11:42:00.158Z,1003.92
2023-01-11T11:43:00.173Z,1003.94
2023-01-11T11:44:00.177Z,1003.89
2023-01-11T11:45:00.189Z,1003.87
2023-01-11T11:46:00.218Z,1003.89
2023-01-11T11:47:00.217Z,1003.90
2023-01-11T11:48:00.227Z,1003.93
2023-01-11T11:49:00.242Z,1003.88
2023-01-11T11:50:00.250Z,1003.90
2023-01-11T11:51:00.271Z,1003.86
2023-01-11T11:52:00.282Z,1003.82
2023-01-11T11:53:00.288Z,1003.86
2023-01-11T11:54:00.298Z,1003.84
2023-01-11T11:55:00.309Z,1003.84
2023-01-11T11:56:00.328Z,1003.76
2023-01-11T11:57:00.339Z,1003.80
2023-01-11T11:58:00.353Z,1003.75
2023-01-11T11:59:00.364Z,1003.75
2023-01-11T12:00:00.373Z,1003.81
2023-01-11T12:01:00.388Z,1003.80
2023-01-11T12:02:00.439Z,1003.78
2023-01-11T12:03:00.410Z,1003.76
2023-01-11T12:04:00.423Z,1003.75
2023-01-11T12:05:00.499Z,1003.73
2023-01-11T12:06:00.455Z,1003.72
2023-01-11T12:07:00.462Z,1003.70
2023-01-11T12:08:00.491Z,1003.67
2023-01-11T12:09:00.487Z,1003.64
2023-01-11T12:10:00.496Z,1003.64
2023-01-11T12:11:00.510Z,1003.67
2023-01-11T12:12:00.530Z,1003.60
2023-01-11T12:13:00.563Z,1003.65